Pagina principale
METAR-TAF:

METAR-TAF

Aeroporti :

Aeroporto di Gibilterra

Gibilterra, Gibilterra

latitudine: 36-09N, longitudine: 005-21W, altezza: 5 m

Osservazione

Il bollettino è stato emesso 56 minuti fa, alle 12:50 UTC
Vento 7 kt da est/sud-est
Temperature 25°C
Umidità 50%
Pressione 1012 hPa
Visibilità 10 km o più
Poco nuvoloso ad un'altezza di 6000 ft

METAR: LXGB 271250Z 11007KT 9999 FEW060 25/14 Q1012 NOSIG

Ora: 15:46 (13:46 UTC)

Previsione

Il bollettino è stato emesso 3 ore e 23 minuti fa, alle 10:23 UTC
Previsione valida dal 27 alle 12 UTC al 27 alle 21 UTC
Vento 5 kt da est/sud-est
Visibilità 10 km o più
nessuna nube inferiore a 1500 m e nessun cumulonembo

TAF: LXGB 271023Z 2712/2721 12005KT CAVOK

Osservazioni e previsioni meteorologiche di più di 4000 aeroporti (messaggi METAR e TAF).

Le stazioni disponibili sono rappresentate dai dischi gialli e rossi sulla carta.

Puntare il mouse per vedere il nome della stazione.

Clicca sopra per visualizzare le osservazioni e previsioni meteorologiche.

Per cambiare la mappa : fare clic sui pulsanti verdi con una croce nera per ingrandire, il pulsante verde con un trattino per diminuire, o sulla freccia verde per le mappe adiacenti.


METAR-TAF: